Point Pleasant, PA (18950)

7:22 AM EST on February 26, 2017 (GMT -0500)
Ockanickon Scout Reservation | | Change Station

Elev 460 ft 40.43 °N, 75.09 °W | Updated 2 minutes ago

Overcast
Overcast
33.0 °F
Feels Like 33 °F
N
3.0
Wind Variable Wind from NE
Gusts 17.0 mph

Today
High -- | Low -- °F
--% Chance of Precip.
Yesterday
High -- | Low -- °F
Precip. -- in
Pressure 29.95 in
Visibility 10.0 miles
Clouds Overcast 4100 ft
Windchill 33 °F
Dew Point 24 °F
Humidity 68%
Rainfall Not available.
Snow Depth Not available.
6:38 AM 5:48 PM
Waning Crescent, 0% visible
METAR KDYL 261154Z AUTO 32011G20KT 10SM OVC041 02/M06 A2993 RMK AO2 SLP140 70042 T00171061 10044 20011 51036 TSNO $
Pressure 29.95 in
Visibility 10.0 miles
Clouds Overcast 4100 ft
Windchill 33 °F
Dew Point 24 °F
Humidity 68%
Rainfall Not available.
Snow Depth Not available.
6:38 AM 5:48 PM
Waning Crescent, 0% visible
METAR KDYL 261154Z AUTO 32011G20KT 10SM OVC041 02/M06 A2993 RMK AO2 SLP140 70042 T00171061 10044 20011 51036 TSNO $

Get Your Daily Forecast Email!

Thanks for signing up!

Be on the lookout for a verification email in your inbox.

You'll start receiving the daily forecast at 8 AM.

×

10-Day Weather Forecast

Almanac

Astronomy

Feb. 26, 2017 Rise Set
Actual Time
Civil Twilight
Nautical Twilight
Astronomical Twilight
Moon
Length of Visible Light
Length of Day
Tomorrow will be .
, % of the Moon is Illuminated

Today's Extremes

State Highs State Lows

Community

WunderPhotos

Upload Photos

1,962,540 photos uploaded!

WunderBlog® & News

Nearby

Air Quality

  Air Quality AQ Index Pollutant
Not available.

Snow Depth

Station Depth Elevation

Earthquake Activity

City Distance Mag. Time & Date
Minimum magnitude displayed is 2.5.

Coastal Water Temperatures

Place Temperature

Stations

Nearby Weather Stations

Station Location Temp. Windchill Dew Point Humidity Wind Precip. Elev Updated Type
                   

Watches & Warnings

There are currently no watches in effect.